createdAt,value
2023-05-05T00:00:27.571Z,500.00
2023-05-05T00:01:27.558Z,438.00
2023-05-05T00:02:27.692Z,405.00
2023-05-05T00:03:27.681Z,405.00
2023-05-05T00:04:27.587Z,451.00
2023-05-05T00:05:27.593Z,472.00
2023-05-05T00:06:27.606Z,484.00
2023-05-05T00:07:27.619Z,502.00
2023-05-05T00:08:27.604Z,501.00
2023-05-05T00:09:27.627Z,511.00
2023-05-05T00:10:27.631Z,511.00
2023-05-05T00:11:27.723Z,507.00
2023-05-05T00:12:27.769Z,544.00
2023-05-05T00:13:27.836Z,513.00
2023-05-05T00:14:27.888Z,540.00
2023-05-05T00:15:27.958Z,543.00
2023-05-05T00:16:28.088Z,561.00
2023-05-05T00:17:28.113Z,571.00
2023-05-05T00:18:28.191Z,570.00
2023-05-05T00:19:28.222Z,571.00
2023-05-05T00:20:28.277Z,545.00
2023-05-05T00:21:28.354Z,510.00
2023-05-05T00:22:28.403Z,540.00
2023-05-05T00:23:28.468Z,620.00
2023-05-05T00:24:28.512Z,539.00
2023-05-05T00:25:28.585Z,499.00
2023-05-05T00:26:28.645Z,497.00
2023-05-05T00:27:28.725Z,506.00
2023-05-05T00:28:28.778Z,501.00
2023-05-05T00:29:29.205Z,529.00
2023-05-05T00:30:28.889Z,523.00
2023-05-05T00:31:29.014Z,566.00
2023-05-05T00:32:29.031Z,510.00
2023-05-05T00:33:29.087Z,503.00
2023-05-05T00:34:29.141Z,463.00
2023-05-05T00:35:29.214Z,477.00
2023-05-05T00:36:29.307Z,514.00
2023-05-05T00:37:29.342Z,500.00
2023-05-05T00:38:29.403Z,495.00
2023-05-05T00:39:29.471Z,513.00
2023-05-05T00:40:29.537Z,476.00
2023-05-05T00:41:29.666Z,461.00
2023-05-05T00:42:29.640Z,508.00
2023-05-05T00:43:29.796Z,538.00
2023-05-05T00:44:29.811Z,510.00
2023-05-05T00:45:29.817Z,526.00
2023-05-05T00:46:29.943Z,593.00
2023-05-05T00:47:29.918Z,894.00
2023-05-05T00:48:29.912Z,1263.00
2023-05-05T00:49:30.026Z,1573.00
2023-05-05T00:50:29.981Z,1830.00
2023-05-05T00:51:30.045Z,2112.00
2023-05-05T00:52:30.106Z,2343.00
2023-05-05T00:53:30.164Z,2512.00
2023-05-05T00:54:30.232Z,2473.00
2023-05-05T00:55:30.261Z,2190.00
2023-05-05T00:56:30.288Z,2185.00
2023-05-05T00:57:30.351Z,2101.00
2023-05-05T00:58:30.424Z,2145.00
2023-05-05T00:59:30.525Z,1951.00
2023-05-05T01:00:30.569Z,1972.00
2023-05-05T01:01:30.703Z,1837.00
2023-05-05T01:02:30.975Z,1527.00
2023-05-05T01:03:30.886Z,1239.00
2023-05-05T01:04:30.871Z,1098.00
2023-05-05T01:05:30.935Z,973.00
2023-05-05T01:06:30.884Z,808.00
2023-05-05T01:07:30.834Z,737.00
2023-05-05T01:08:30.899Z,863.00
2023-05-05T01:09:30.889Z,950.00
2023-05-05T01:10:30.924Z,769.00
2023-05-05T01:11:30.965Z,655.00
2023-05-05T01:12:31.056Z,648.00
2023-05-05T01:13:31.072Z,643.00
2023-05-05T01:14:31.086Z,688.00
2023-05-05T01:15:31.162Z,770.00
2023-05-05T01:16:31.226Z,782.00
2023-05-05T01:17:31.348Z,778.00
2023-05-05T01:18:31.313Z,788.00
2023-05-05T01:19:31.390Z,765.00
2023-05-05T01:20:31.477Z,828.00
2023-05-05T01:21:31.534Z,748.00
2023-05-05T01:22:31.719Z,662.00
2023-05-05T01:23:30.705Z,689.00
2023-05-05T01:24:31.768Z,647.00
2023-05-05T01:25:31.874Z,636.00
2023-05-05T01:26:31.897Z,663.00
2023-05-05T01:27:31.956Z,668.00
2023-05-05T01:28:32.008Z,691.00
2023-05-05T01:29:32.049Z,845.00
2023-05-05T01:30:32.084Z,889.00
2023-05-05T01:31:32.149Z,879.00
2023-05-05T01:32:32.190Z,992.00
2023-05-05T01:33:32.115Z,1103.00
2023-05-05T01:34:32.142Z,1290.00
2023-05-05T01:35:32.180Z,1372.00
2023-05-05T01:36:32.193Z,1413.00
2023-05-05T01:37:32.212Z,1425.00
2023-05-05T01:38:32.227Z,1122.00
2023-05-05T01:39:32.231Z,943.00
2023-05-05T01:40:32.283Z,936.00
2023-05-05T01:41:32.282Z,1008.00
2023-05-05T01:42:32.339Z,1067.00
2023-05-05T01:43:32.329Z,1057.00
2023-05-05T01:44:32.351Z,998.00
2023-05-05T01:45:32.445Z,895.00
2023-05-05T01:46:32.403Z,697.00
2023-05-05T01:47:32.509Z,660.00
2023-05-05T01:48:32.452Z,741.00
2023-05-05T01:49:32.492Z,867.00
2023-05-05T01:50:32.539Z,963.00
2023-05-05T01:51:32.570Z,1087.00
2023-05-05T01:52:32.595Z,1012.00
2023-05-05T01:53:32.649Z,944.00
2023-05-05T01:54:32.662Z,942.00
2023-05-05T01:55:32.672Z,1011.00
2023-05-05T01:56:32.744Z,1111.00
2023-05-05T01:57:33.598Z,1331.00
2023-05-05T01:58:32.781Z,1641.00
2023-05-05T01:59:32.835Z,1951.00
2023-05-05T02:00:32.890Z,2186.00
2023-05-05T02:01:32.991Z,2404.00
2023-05-05T02:02:33.003Z,2537.00
2023-05-05T02:03:33.020Z,2661.00
2023-05-05T02:04:33.027Z,2718.00
2023-05-05T02:05:33.070Z,2741.00
2023-05-05T02:06:33.086Z,2820.00
2023-05-05T02:07:33.141Z,2612.00
2023-05-05T02:08:33.228Z,2302.00
2023-05-05T02:09:33.244Z,2261.00
2023-05-05T02:10:33.317Z,2202.00
2023-05-05T02:11:33.376Z,2189.00
2023-05-05T02:12:33.460Z,2131.00
2023-05-05T02:13:33.523Z,2118.00
2023-05-05T02:14:33.562Z,2043.00
2023-05-05T02:15:33.627Z,2023.00
2023-05-05T02:16:33.646Z,1870.00
2023-05-05T02:17:33.725Z,1793.00
2023-05-05T02:18:33.713Z,1749.00
2023-05-05T02:19:33.821Z,1787.00
2023-05-05T02:20:33.864Z,1783.00
2023-05-05T02:21:33.886Z,1853.00
2023-05-05T02:22:34.008Z,1903.00
2023-05-05T02:23:33.974Z,1905.00
2023-05-05T02:24:34.007Z,1872.00
2023-05-05T02:25:34.075Z,1863.00
2023-05-05T02:26:34.098Z,1772.00
2023-05-05T02:27:34.156Z,1733.00
2023-05-05T02:28:34.160Z,1765.00
2023-05-05T02:29:34.213Z,1836.00
2023-05-05T02:30:34.246Z,1998.00
2023-05-05T02:31:34.333Z,2190.00
2023-05-05T02:32:34.427Z,2309.00
2023-05-05T02:33:34.371Z,2346.00
2023-05-05T02:34:34.416Z,2366.00
2023-05-05T02:35:34.482Z,2392.00
2023-05-05T02:36:34.512Z,2464.00
2023-05-05T02:37:34.568Z,2550.00
2023-05-05T02:38:34.611Z,2578.00
2023-05-05T02:39:34.643Z,2587.00
2023-05-05T02:40:34.692Z,2471.00
2023-05-05T02:41:34.814Z,2472.00
2023-05-05T02:42:34.817Z,2480.00
2023-05-05T02:43:34.913Z,2550.00
2023-05-05T02:44:34.931Z,2580.00
2023-05-05T02:45:34.974Z,2673.00
2023-05-05T02:46:35.116Z,2768.00
2023-05-05T02:47:35.153Z,2856.00
2023-05-05T02:48:35.134Z,3011.00
2023-05-05T02:49:35.190Z,3074.00
2023-05-05T02:50:35.250Z,3039.00
2023-05-05T02:51:35.350Z,3037.00
2023-05-05T02:52:35.363Z,3063.00
2023-05-05T02:53:35.374Z,2987.00
2023-05-05T02:54:35.427Z,2873.00
2023-05-05T02:55:35.491Z,2741.00
2023-05-05T02:56:35.546Z,2678.00
2023-05-05T02:57:35.598Z,2531.00
2023-05-05T02:58:35.654Z,2581.00
2023-05-05T02:59:35.708Z,2485.00
2023-05-05T03:00:35.773Z,2469.00
2023-05-05T03:01:35.861Z,2396.00
2023-05-05T03:02:35.954Z,2249.00
2023-05-05T03:03:36.075Z,2059.00
2023-05-05T03:04:35.990Z,2052.00
2023-05-05T03:05:36.046Z,1876.00
2023-05-05T03:06:36.124Z,1874.00
2023-05-05T03:07:36.181Z,1880.00
2023-05-05T03:08:36.209Z,1837.00
2023-05-05T03:09:36.260Z,1852.00
2023-05-05T03:10:36.321Z,1830.00
2023-05-05T03:11:36.382Z,1829.00
2023-05-05T03:12:36.468Z,1908.00
2023-05-05T03:13:36.470Z,1901.00
2023-05-05T03:14:36.536Z,1929.00
2023-05-05T03:15:36.572Z,1961.00
2023-05-05T03:16:36.734Z,1983.00
2023-05-05T03:17:36.764Z,1988.00
2023-05-05T03:18:36.759Z,1888.00
2023-05-05T03:19:36.823Z,1894.00
2023-05-05T03:20:36.893Z,1925.00
2023-05-05T03:21:36.965Z,1884.00
2023-05-05T03:22:37.029Z,1799.00
2023-05-05T03:23:37.114Z,1760.00
2023-05-05T03:24:37.167Z,1724.00
2023-05-05T03:25:37.254Z,1671.00
2023-05-05T03:26:37.338Z,1638.00
2023-05-05T03:27:37.422Z,1519.00
2023-05-05T03:28:37.489Z,1513.00
2023-05-05T03:29:37.576Z,1393.00
2023-05-05T03:30:37.655Z,1363.00
2023-05-05T03:31:37.793Z,1391.00
2023-05-05T03:32:37.838Z,1309.00
2023-05-05T03:33:37.864Z,1179.00
2023-05-05T03:34:38.018Z,1135.00
2023-05-05T03:35:37.989Z,1151.00
2023-05-05T03:36:38.058Z,1158.00
2023-05-05T03:37:38.124Z,1265.00
2023-05-05T03:38:38.184Z,1316.00
2023-05-05T03:39:38.268Z,1273.00
2023-05-05T03:40:44.043Z,1295.00
2023-05-05T03:41:38.305Z,1295.00
2023-05-05T03:42:38.313Z,1303.00
2023-05-05T03:43:38.349Z,1320.00
2023-05-05T03:44:38.343Z,1330.00
2023-05-05T03:45:38.429Z,1388.00
2023-05-05T03:46:38.389Z,1321.00
2023-05-05T03:47:38.417Z,1286.00
2023-05-05T03:48:38.424Z,1205.00
2023-05-05T03:49:38.445Z,1142.00
2023-05-05T03:50:38.576Z,1165.00
2023-05-05T03:51:38.492Z,1132.00
2023-05-05T03:52:38.542Z,1115.00
2023-05-05T03:53:38.544Z,1146.00
2023-05-05T03:54:38.552Z,1203.00
2023-05-05T03:55:38.605Z,1227.00
2023-05-05T03:56:38.595Z,1282.00
2023-05-05T03:57:38.630Z,1243.00
2023-05-05T03:58:38.644Z,1342.00
2023-05-05T03:59:38.668Z,1332.00
2023-05-05T04:00:38.684Z,1391.00
2023-05-05T04:01:38.719Z,1448.00
2023-05-05T04:02:39.513Z,1423.00
2023-05-05T04:03:38.809Z,1368.00
2023-05-05T04:04:38.781Z,1420.00
2023-05-05T04:05:38.791Z,1439.00
2023-05-05T04:06:38.827Z,1515.00
2023-05-05T04:07:38.854Z,1579.00
2023-05-05T04:08:38.871Z,1690.00
2023-05-05T04:09:38.887Z,1679.00
2023-05-05T04:10:38.915Z,1638.00
2023-05-05T04:11:39.851Z,1661.00
2023-05-05T04:12:39.033Z,1727.00
2023-05-05T04:13:38.975Z,1799.00
2023-05-05T04:14:38.990Z,1722.00
2023-05-05T04:15:39.047Z,1653.00
2023-05-05T04:16:39.030Z,1631.00
2023-05-05T04:17:39.079Z,1574.00
2023-05-05T04:18:39.055Z,1596.00
2023-05-05T04:19:39.096Z,1575.00
2023-05-05T04:20:39.093Z,1482.00
2023-05-05T04:21:39.114Z,1437.00
2023-05-05T04:22:39.171Z,1420.00
2023-05-05T04:23:39.148Z,1353.00
2023-05-05T04:24:39.207Z,1400.00
2023-05-05T04:25:39.261Z,1461.00
2023-05-05T04:26:39.292Z,1574.00
2023-05-05T04:27:39.341Z,2117.00
2023-05-05T04:28:39.339Z,2669.00
2023-05-05T04:29:39.370Z,2824.00
2023-05-05T04:30:39.433Z,3043.00
2023-05-05T04:31:39.554Z,3266.00
2023-05-05T04:32:39.549Z,3143.00
2023-05-05T04:33:39.524Z,3141.00
2023-05-05T04:34:39.548Z,3292.00
2023-05-05T04:35:39.563Z,3379.00
2023-05-05T04:36:39.602Z,3407.00
2023-05-05T04:37:39.644Z,3293.00
2023-05-05T04:38:39.706Z,3328.00
2023-05-05T04:39:39.735Z,3546.00
2023-05-05T04:40:39.794Z,3686.00
2023-05-05T04:41:39.865Z,3768.00
2023-05-05T04:42:39.937Z,3710.00
2023-05-05T04:43:40.022Z,3635.00
2023-05-05T04:44:40.067Z,3539.00
2023-05-05T04:45:40.097Z,3339.00
2023-05-05T04:46:40.146Z,2914.00
2023-05-05T04:47:40.233Z,2575.00
2023-05-05T04:48:40.225Z,2317.00
2023-05-05T04:49:40.269Z,2155.00
2023-05-05T04:50:40.288Z,2012.00
2023-05-05T04:51:40.308Z,1984.00
2023-05-05T04:52:40.334Z,1421.00
2023-05-05T04:53:40.342Z,1329.00
2023-05-05T04:54:40.351Z,1344.00
2023-05-05T04:55:40.371Z,1131.00
2023-05-05T04:56:40.370Z,1162.00
2023-05-05T04:57:40.400Z,1203.00
2023-05-05T04:58:40.404Z,1193.00
2023-05-05T04:59:40.447Z,1265.00
2023-05-05T05:00:40.424Z,1378.00
2023-05-05T05:01:40.443Z,1342.00
2023-05-05T05:02:40.562Z,1193.00
2023-05-05T05:03:40.585Z,1315.00
2023-05-05T05:04:40.512Z,1486.00
2023-05-05T05:05:40.570Z,1521.00
2023-05-05T05:06:40.640Z,1405.00
2023-05-05T05:07:40.710Z,1639.00
2023-05-05T05:08:40.716Z,3044.00
2023-05-05T05:09:40.762Z,3771.00
2023-05-05T05:10:40.813Z,4067.00
2023-05-05T05:11:40.871Z,4218.00
2023-05-05T05:12:41.387Z,4322.00
2023-05-05T05:13:40.960Z,4372.00
2023-05-05T05:14:40.993Z,4345.00
2023-05-05T05:15:41.801Z,4407.00
2023-05-05T05:16:41.128Z,4309.00
2023-05-05T05:17:41.158Z,4049.00
2023-05-05T05:18:41.149Z,4059.00
2023-05-05T05:19:41.164Z,4227.00
2023-05-05T05:20:41.200Z,4384.00
2023-05-05T05:21:41.353Z,4523.00
2023-05-05T05:22:41.280Z,4538.00
2023-05-05T05:23:41.299Z,4476.00
2023-05-05T05:24:41.346Z,4364.00
2023-05-05T05:25:41.456Z,4249.00
2023-05-05T05:26:41.421Z,4124.00
2023-05-05T05:27:41.872Z,4168.00
2023-05-05T05:28:41.859Z,4345.00
2023-05-05T05:29:41.521Z,4477.00
2023-05-05T05:30:41.554Z,4548.00
2023-05-05T05:31:41.951Z,4500.00
2023-05-05T05:32:41.688Z,4362.00
2023-05-05T05:33:41.681Z,4052.00
2023-05-05T05:34:41.701Z,4042.00
2023-05-05T05:35:41.760Z,4153.00
2023-05-05T05:36:41.869Z,4194.00
2023-05-05T05:37:41.824Z,4218.00
2023-05-05T05:38:41.832Z,4246.00
2023-05-05T05:39:43.545Z,4250.00
2023-05-05T05:40:41.860Z,4366.00
2023-05-05T05:41:41.912Z,4404.00
2023-05-05T05:42:41.860Z,4449.00
2023-05-05T05:43:41.807Z,4457.00
2023-05-05T05:44:41.758Z,4475.00
2023-05-05T05:45:41.794Z,4448.00
2023-05-05T05:46:41.888Z,4470.00
2023-05-05T05:47:41.782Z,4342.00
2023-05-05T05:48:41.662Z,4408.00
2023-05-05T05:49:41.631Z,4464.00
2023-05-05T05:50:42.328Z,4566.00
2023-05-05T05:51:57.465Z,4587.00
2023-05-05T05:52:41.884Z,4590.00
2023-05-05T05:53:41.516Z,4606.00
2023-05-05T05:54:41.492Z,4628.00
2023-05-05T05:56:42.237Z,4592.00
2023-05-05T05:57:44.608Z,4591.00
2023-05-05T05:58:41.383Z,4591.00
2023-05-05T05:59:41.375Z,4589.00
2023-05-05T06:00:56.993Z,4556.00
2023-05-05T06:02:41.342Z,4590.00
2023-05-05T06:04:56.858Z,4451.00
2023-05-05T06:05:48.590Z,4590.00
2023-05-05T06:06:41.881Z,4592.00
2023-05-05T06:07:41.125Z,4590.00
2023-05-05T06:08:41.362Z,4597.00
2023-05-05T06:09:42.041Z,4623.00
2023-05-05T06:10:41.018Z,4668.00
2023-05-05T06:11:41.876Z,4710.00
2023-05-05T06:12:42.040Z,4685.00
2023-05-05T06:15:48.341Z,4678.00
2023-05-05T06:16:40.992Z,4574.00
2023-05-05T06:17:40.836Z,4578.00
2023-05-05T06:18:40.758Z,4488.00
2023-05-05T06:19:40.803Z,4302.00
2023-05-05T06:20:40.788Z,4069.00
2023-05-05T06:21:41.181Z,3946.00
2023-05-05T06:22:41.652Z,3907.00
2023-05-05T06:23:41.877Z,4041.00
2023-05-05T06:24:40.666Z,3949.00
2023-05-05T06:25:40.695Z,3828.00
2023-05-05T06:26:40.725Z,3826.00
2023-05-05T06:27:41.086Z,3729.00
2023-05-05T06:28:40.682Z,3371.00
2023-05-05T06:29:40.587Z,3208.00
2023-05-05T06:30:40.549Z,3204.00
2023-05-05T06:31:40.659Z,3183.00
2023-05-05T06:32:40.627Z,3444.00
2023-05-05T06:33:40.599Z,3630.00
2023-05-05T06:34:40.507Z,3642.00
2023-05-05T06:35:40.461Z,3692.00
2023-05-05T06:36:40.514Z,3249.00
2023-05-05T06:37:40.407Z,3192.00
2023-05-05T06:38:40.943Z,3206.00
2023-05-05T06:39:41.369Z,3214.00
2023-05-05T06:40:40.355Z,3188.00
2023-05-05T06:41:40.372Z,3234.00
2023-05-05T06:42:40.412Z,3099.00
2023-05-05T06:43:41.341Z,3193.00
2023-05-05T06:44:40.546Z,3326.00
2023-05-05T06:45:41.951Z,3434.00
2023-05-05T06:46:40.464Z,3439.00
2023-05-05T06:47:40.442Z,3491.00
2023-05-05T06:48:40.857Z,3649.00
2023-05-05T06:49:40.329Z,3931.00
2023-05-05T06:50:40.269Z,4236.00
2023-05-05T06:51:42.695Z,4346.00
2023-05-05T06:52:40.406Z,4326.00
2023-05-05T12:17:52.790Z,500.00
2023-05-05T12:18:53.504Z,500.00
2023-05-05T12:19:53.486Z,500.00
2023-05-05T12:20:53.463Z,500.00
2023-05-05T12:21:53.462Z,500.00
2023-05-05T12:22:53.480Z,592.00
2023-05-05T12:23:53.495Z,591.00
2023-05-05T12:24:54.944Z,973.00
2023-05-05T12:25:53.683Z,1650.00
2023-05-05T12:26:53.714Z,1378.00
2023-05-05T12:27:53.767Z,748.00
2023-05-05T12:28:53.841Z,400.00
2023-05-05T12:29:53.872Z,400.00
2023-05-05T12:30:55.060Z,400.00
2023-05-05T12:31:53.925Z,400.00
2023-05-05T12:32:53.950Z,400.00
2023-05-05T12:33:54.016Z,433.00
2023-05-05T12:34:53.970Z,509.00
2023-05-05T12:35:53.988Z,400.00
2023-05-05T12:36:54.023Z,400.00
2023-05-05T12:37:54.048Z,548.00
2023-05-05T12:38:54.090Z,400.00
2023-05-05T12:39:54.205Z,416.00
2023-05-05T12:40:54.186Z,436.00
2023-05-05T12:41:54.272Z,724.00
2023-05-05T12:42:54.295Z,508.00
2023-05-05T12:43:54.418Z,643.00
2023-05-05T12:44:54.389Z,400.00
2023-05-05T12:45:54.487Z,402.00
2023-05-05T12:46:56.027Z,437.00
2023-05-05T12:47:54.681Z,540.00
2023-05-05T12:48:54.684Z,927.00
2023-05-05T12:49:54.819Z,1169.00
2023-05-05T12:50:54.803Z,465.00
2023-05-05T12:51:54.837Z,585.00
2023-05-05T12:52:54.894Z,460.00
2023-05-05T12:53:54.958Z,621.00
2023-05-05T12:54:55.491Z,920.00
2023-05-05T12:55:55.052Z,539.00
2023-05-05T12:56:55.104Z,608.00
2023-05-05T12:57:55.103Z,548.00
2023-05-05T12:58:55.143Z,400.00
2023-05-05T12:59:55.496Z,400.00
2023-05-05T13:00:55.333Z,622.00
2023-05-05T13:01:55.553Z,944.00
2023-05-05T13:02:55.468Z,1362.00
2023-05-05T13:03:55.489Z,1170.00
2023-05-05T13:04:55.504Z,1006.00
2023-05-05T13:05:55.631Z,1335.00
2023-05-05T13:06:55.572Z,1143.00
2023-05-05T13:07:55.596Z,586.00
2023-05-05T13:08:55.661Z,501.00
2023-05-05T13:09:56.033Z,550.00
2023-05-05T13:10:55.747Z,454.00
2023-05-05T13:11:55.815Z,634.00
2023-05-05T13:12:56.062Z,594.00
2023-05-05T13:13:55.907Z,647.00
2023-05-05T13:14:55.958Z,825.00
2023-05-05T13:15:56.033Z,625.00
2023-05-05T13:16:56.075Z,887.00
2023-05-05T13:17:56.220Z,1433.00
2023-05-05T13:18:56.220Z,1438.00
2023-05-05T13:19:56.303Z,1134.00
2023-05-05T13:20:56.348Z,987.00
2023-05-05T13:21:56.474Z,1582.00
2023-05-05T13:22:56.487Z,1201.00
2023-05-05T13:24:05.124Z,633.00
2023-05-05T13:24:56.602Z,464.00
2023-05-05T13:25:56.997Z,545.00
2023-05-05T13:26:56.681Z,588.00
2023-05-05T13:27:56.722Z,882.00
2023-05-05T13:28:56.750Z,1470.00
2023-05-05T13:29:56.786Z,1463.00
2023-05-05T13:30:56.829Z,1590.00
2023-05-05T13:31:56.869Z,2108.00
2023-05-05T13:32:56.852Z,1873.00
2023-05-05T13:33:56.875Z,1265.00
2023-05-05T13:34:56.907Z,847.00
2023-05-05T13:35:56.917Z,524.00
2023-05-05T13:36:56.988Z,483.00
2023-05-05T13:37:57.066Z,533.00
2023-05-05T13:38:57.005Z,1100.00
2023-05-05T13:39:57.032Z,2010.00
2023-05-05T13:40:57.081Z,1637.00
2023-05-05T13:41:57.101Z,1156.00
2023-05-05T13:42:57.172Z,1586.00
2023-05-05T13:43:57.228Z,1649.00
2023-05-05T13:44:57.262Z,1195.00
2023-05-05T13:46:05.542Z,703.00
2023-05-05T13:46:57.383Z,507.00
2023-05-05T13:47:57.378Z,594.00
2023-05-05T13:48:57.512Z,720.00
2023-05-05T13:49:57.378Z,591.00
2023-05-05T13:50:57.385Z,526.00
2023-05-05T13:51:57.406Z,679.00
2023-05-05T13:52:57.408Z,547.00
2023-05-05T13:53:57.573Z,524.00
2023-05-05T13:54:57.460Z,488.00
2023-05-05T13:55:57.492Z,480.00
2023-05-05T13:56:57.507Z,513.00
2023-05-05T13:57:57.515Z,606.00
2023-05-05T13:58:57.540Z,482.00
2023-05-05T13:59:57.593Z,539.00
2023-05-05T14:00:58.218Z,601.00
2023-05-05T14:01:57.594Z,747.00
2023-05-05T14:02:57.625Z,786.00
2023-05-05T14:03:58.000Z,1035.00
2023-05-05T14:04:57.634Z,799.00
2023-05-05T14:05:58.060Z,1066.00
2023-05-05T14:06:57.649Z,1331.00
2023-05-05T14:07:57.662Z,715.00
2023-05-05T14:08:58.017Z,640.00
2023-05-05T14:09:57.804Z,439.00
2023-05-05T14:10:58.019Z,564.00
2023-05-05T14:11:57.727Z,984.00
2023-05-05T14:12:57.793Z,603.00
2023-05-05T14:13:57.772Z,453.00
2023-05-05T14:14:57.778Z,461.00
2023-05-05T14:15:57.838Z,699.00
2023-05-05T14:16:57.882Z,663.00
2023-05-05T14:17:57.882Z,514.00
2023-05-05T14:18:57.853Z,496.00
2023-05-05T14:19:57.884Z,499.00
2023-05-05T14:20:57.921Z,400.00
2023-05-05T14:21:57.928Z,506.00
2023-05-05T14:22:57.946Z,582.00
2023-05-05T14:23:58.005Z,730.00
2023-05-05T14:24:58.016Z,1082.00
2023-05-05T14:25:58.196Z,1467.00
2023-05-05T14:26:58.059Z,1188.00
2023-05-05T14:27:58.125Z,1209.00
2023-05-05T14:28:58.175Z,846.00
2023-05-05T14:29:58.234Z,612.00
2023-05-05T14:30:58.295Z,567.00
2023-05-05T14:31:58.334Z,581.00
2023-05-05T14:32:58.377Z,483.00
2023-05-05T14:33:58.526Z,559.00
2023-05-05T14:34:58.460Z,1014.00
2023-05-05T14:35:58.531Z,926.00
2023-05-05T14:36:58.644Z,737.00
2023-05-05T14:37:58.641Z,605.00
2023-05-05T14:38:59.043Z,563.00
2023-05-05T14:39:58.771Z,454.00
2023-05-05T14:40:58.889Z,631.00
2023-05-05T14:41:58.972Z,1090.00
2023-05-05T14:42:58.936Z,1402.00
2023-05-05T14:43:59.538Z,923.00
2023-05-05T14:44:59.041Z,1121.00
2023-05-05T14:45:59.155Z,983.00
2023-05-05T14:46:59.529Z,939.00
2023-05-05T14:47:59.341Z,1245.00
2023-05-05T14:48:59.306Z,1209.00
2023-05-05T14:49:59.340Z,1479.00
2023-05-05T14:50:59.436Z,1183.00
2023-05-05T14:51:59.387Z,1155.00
2023-05-05T14:52:59.451Z,1096.00
2023-05-05T14:53:59.507Z,1307.00
2023-05-05T14:54:59.575Z,3278.00
2023-05-05T14:55:59.657Z,1482.00
2023-05-05T14:56:59.762Z,1199.00
2023-05-05T14:57:59.932Z,1362.00
2023-05-05T14:58:59.914Z,1097.00
2023-05-05T15:00:00.009Z,1062.00
2023-05-05T15:01:00.071Z,1096.00
2023-05-05T15:02:00.268Z,1469.00
2023-05-05T15:03:00.268Z,1505.00
2023-05-05T15:04:00.339Z,1685.00
2023-05-05T15:05:00.300Z,1997.00
2023-05-05T15:06:00.349Z,2277.00
2023-05-05T15:07:00.396Z,2470.00
2023-05-05T15:08:00.454Z,2066.00
2023-05-05T15:09:00.563Z,1827.00
2023-05-05T15:10:00.608Z,1750.00
2023-05-05T15:11:00.668Z,1523.00
2023-05-05T15:12:00.723Z,1504.00
2023-05-05T15:13:00.853Z,2085.00
2023-05-05T15:14:00.894Z,2771.00
2023-05-05T15:15:00.908Z,2767.00
2023-05-05T15:16:01.054Z,2702.00
2023-05-05T15:17:01.096Z,2632.00
2023-05-05T15:18:01.248Z,2506.00
2023-05-05T15:19:01.223Z,2158.00
2023-05-05T15:20:01.309Z,2055.00
2023-05-05T15:21:01.360Z,2121.00
2023-05-05T15:22:01.460Z,2372.00
2023-05-05T15:23:01.527Z,2252.00
2023-05-05T15:24:01.596Z,2261.00
2023-05-05T15:25:01.657Z,2545.00
2023-05-05T15:26:01.750Z,2321.00
2023-05-05T15:27:01.810Z,2223.00
2023-05-05T15:28:01.877Z,2243.00
2023-05-05T15:29:01.928Z,2247.00
2023-05-05T15:30:02.053Z,2015.00
2023-05-05T15:31:02.050Z,2274.00
2023-05-05T15:32:02.147Z,1944.00
2023-05-05T15:33:02.298Z,1940.00
2023-05-05T15:34:02.308Z,2064.00
2023-05-05T15:35:02.399Z,1849.00
2023-05-05T15:36:02.452Z,2065.00
2023-05-05T15:37:02.563Z,2279.00
2023-05-05T15:38:02.643Z,1928.00
2023-05-05T15:39:02.767Z,1983.00
2023-05-05T15:40:02.985Z,2482.00
2023-05-05T15:41:02.981Z,2831.00
2023-05-05T15:42:03.062Z,2937.00
2023-05-05T15:43:03.147Z,2352.00
2023-05-05T15:44:03.192Z,2900.00
2023-05-05T15:45:03.290Z,3532.00
2023-05-05T15:46:03.377Z,3836.00
2023-05-05T15:47:03.451Z,3405.00
2023-05-05T15:48:03.521Z,2854.00
2023-05-05T15:49:03.543Z,2654.00
2023-05-05T15:50:03.628Z,2414.00
2023-05-05T15:51:03.695Z,2412.00
2023-05-05T15:52:03.748Z,2382.00
2023-05-05T15:53:03.814Z,2439.00
2023-05-05T15:54:03.950Z,2710.00
2023-05-05T15:55:04.039Z,2476.00
2023-05-05T15:56:04.101Z,2361.00
2023-05-05T15:57:04.176Z,2250.00
2023-05-05T15:58:04.264Z,2508.00
2023-05-05T15:59:04.382Z,2613.00
2023-05-05T16:00:04.432Z,2929.00
2023-05-05T16:01:04.549Z,3179.00
2023-05-05T16:02:04.713Z,3226.00
2023-05-05T16:03:04.754Z,3500.00
2023-05-05T16:04:04.736Z,3795.00
2023-05-05T16:05:04.884Z,3910.00
2023-05-05T16:06:04.823Z,3843.00
2023-05-05T16:07:04.877Z,3573.00
2023-05-05T16:08:04.939Z,3846.00
2023-05-05T16:09:04.988Z,4004.00
2023-05-05T16:10:05.027Z,4331.00
2023-05-05T16:11:05.098Z,3953.00
2023-05-05T16:12:05.190Z,3679.00
2023-05-05T16:13:05.294Z,3512.00
2023-05-05T16:14:05.377Z,3483.00
2023-05-05T16:15:05.513Z,3691.00
2023-05-05T16:16:05.571Z,4064.00
2023-05-05T16:17:05.692Z,4304.00
2023-05-05T16:18:05.926Z,4242.00
2023-05-05T16:19:05.871Z,4413.00
2023-05-05T16:20:06.001Z,4389.00
2023-05-05T16:21:06.072Z,3979.00
2023-05-05T16:22:06.153Z,4003.00
2023-05-05T16:23:06.253Z,4146.00
2023-05-05T16:24:06.326Z,4078.00
2023-05-05T16:25:06.552Z,3408.00
2023-05-05T16:26:06.480Z,3361.00
2023-05-05T16:27:06.551Z,3548.00
2023-05-05T16:28:06.645Z,3181.00
2023-05-05T16:29:06.710Z,3225.00
2023-05-05T16:30:06.839Z,3041.00
2023-05-05T16:31:06.955Z,3080.00
2023-05-05T16:32:07.058Z,3204.00
2023-05-05T16:33:07.172Z,3071.00
2023-05-05T16:34:07.309Z,3290.00
2023-05-05T16:35:07.559Z,3092.00
2023-05-05T16:36:07.321Z,3032.00
2023-05-05T16:37:07.402Z,3094.00
2023-05-05T16:38:07.471Z,2988.00
2023-05-05T16:39:07.571Z,3100.00
2023-05-05T16:40:08.528Z,3157.00
2023-05-05T16:41:07.754Z,3194.00
2023-05-05T16:42:07.803Z,3028.00
2023-05-05T16:43:07.917Z,3187.00
2023-05-05T16:44:07.987Z,3471.00
2023-05-05T16:45:09.042Z,3435.00
2023-05-05T16:46:08.129Z,3436.00
2023-05-05T16:47:08.177Z,3813.00
2023-05-05T16:48:09.237Z,4122.00
2023-05-05T16:49:08.864Z,3632.00
2023-05-05T16:50:08.654Z,3728.00
2023-05-05T16:51:08.632Z,3484.00
2023-05-05T16:52:08.724Z,3395.00
2023-05-05T16:53:08.845Z,3422.00
2023-05-05T16:54:08.969Z,3968.00
2023-05-05T16:55:09.281Z,4007.00
2023-05-05T16:56:09.211Z,4008.00
2023-05-05T16:57:09.317Z,4349.00
2023-05-05T16:58:09.440Z,4180.00
2023-05-05T16:59:09.589Z,4231.00
2023-05-05T17:00:09.620Z,4212.00
2023-05-05T17:01:09.765Z,4362.00
2023-05-05T17:02:09.862Z,4105.00
2023-05-05T17:03:09.848Z,4135.00
2023-05-05T17:04:09.943Z,4087.00
2023-05-05T17:05:10.328Z,4419.00
2023-05-05T17:06:10.188Z,4782.00
2023-05-05T17:07:10.196Z,4635.00
2023-05-05T17:08:10.304Z,4423.00
2023-05-05T17:09:10.422Z,4575.00
2023-05-05T17:10:10.548Z,4727.00
2023-05-05T17:11:11.640Z,4208.00
2023-05-05T17:12:10.806Z,4254.00
2023-05-05T17:13:10.947Z,4442.00
2023-05-05T17:14:11.005Z,4440.00
2023-05-05T17:15:11.168Z,4529.00
2023-05-05T17:16:11.188Z,4681.00
2023-05-05T17:17:11.297Z,4461.00
2023-05-05T17:18:11.464Z,4727.00
2023-05-05T17:19:11.530Z,4376.00
2023-05-05T17:20:11.665Z,4138.00
2023-05-05T17:21:11.762Z,4074.00
2023-05-05T17:22:11.976Z,4345.00
2023-05-05T17:23:11.945Z,4440.00
2023-05-05T17:24:12.066Z,4659.00
2023-05-05T17:25:12.327Z,4780.00
2023-05-05T17:26:12.278Z,5120.00
2023-05-05T17:28:30.616Z,500.00
2023-05-05T17:29:31.603Z,500.00
2023-05-05T17:30:31.591Z,500.00
2023-05-05T17:31:31.598Z,500.00
2023-05-05T17:32:31.592Z,500.00
2023-05-05T17:33:31.578Z,502.00
2023-05-05T17:34:31.577Z,500.00
2023-05-05T17:35:31.581Z,552.00
2023-05-05T17:36:31.557Z,606.00
2023-05-05T17:37:31.631Z,574.00
2023-05-05T17:38:31.522Z,559.00
2023-05-05T17:39:31.509Z,606.00
2023-05-05T17:40:31.751Z,618.00
2023-05-05T17:41:32.300Z,500.00
2023-05-05T17:42:32.163Z,525.00
2023-05-05T17:43:31.736Z,635.00